Roland, Oklahoma
Current Conditions -  °F | °C
As of 6:53 PM on Friday 24 Oct 2014 (Local Time) from KFSM Reporting Station
Clear Clear  
Wind Chill: 71°   Ceiling: Unl
Heat Index: 71°   Visibility: 10mi
Dew Point: 62°   Wind: 5mph
Humidity: 73%   Direction: 80°E
Pressure: 30.06"   Gusts: NA
Location:  35.42°N, 94.51°W
Report Text: KFSM 242353Z AUTO 08004KT 10SM CLR 22/17 A3006 RMK AO2 SLP177 T02170167 10256 20217 55004 TSNO
Loading
Personal Weather Stations






























Interactive Weather Map
Tropical Storm Tracking
New forecast layout! Learn more

10-Day Weather Forecast

Advertisements
Track Severe Weather on mobile